<?xml version="1.0" encoding="UTF-8" standalone="no" ?>
<gpx xmlns="http://www.topografix.com/GPX/1/1" xmlns:xsi="http://www.w3.org/2001/XMLSchema-instance" xsi:schemaLocation="http://www.topografix.com/GPX/1/1 http://www.topografix.com/GPX/1/1/gpx.xsd" version="1.1" creator="VisuGPX - https://www.visugpx.com">
  <metadata>
    <name>Les Mattes par Les Boudimes</name>
  </metadata>
  <wpt lat="46.25032" lon="6.8095">
    <ele>1166</ele>
    <name><![CDATA[Chapelle de Très Les Pierres]]></name>
  </wpt>
  <wpt lat="46.25848" lon="6.81669">
    <ele>1304</ele>
    <name><![CDATA[cascade]]></name>
  </wpt>
  <wpt lat="46.26186" lon="6.82643">
    <ele>1371</ele>
    <name><![CDATA[Les Boudimes]]></name>
  </wpt>
  <wpt lat="46.26209" lon="6.8265">
    <ele>1378</ele>
    <name><![CDATA[Les Boudimes]]></name>
  </wpt>
  <wpt lat="46.26682" lon="6.82512">
    <ele>1494</ele>
    <name><![CDATA[Intersection]]></name>
  </wpt>
  <wpt lat="46.26437" lon="6.81122">
    <ele>1770</ele>
    <name><![CDATA[Les Québales]]></name>
  </wpt>
  <wpt lat="46.26452" lon="6.81097">
    <ele>1773</ele>
    <name><![CDATA[Les Québales]]></name>
  </wpt>
  <wpt lat="46.26428" lon="6.80467">
    <ele>1749</ele>
    <name><![CDATA[Chalet de la Torrens]]></name>
  </wpt>
  <wpt lat="46.26433" lon="6.804">
    <ele>1750</ele>
    <name><![CDATA[Chalet de la Torrens]]></name>
  </wpt>
  <wpt lat="46.26143" lon="6.79781">
    <ele>1916</ele>
    <name><![CDATA[Les Mattes]]></name>
  </wpt>
  <wpt lat="46.2603" lon="6.79734">
    <ele>1901</ele>
    <name><![CDATA[Les Mattes]]></name>
  </wpt>
  <wpt lat="46.25696" lon="6.79413">
    <ele>1710</ele>
    <name><![CDATA[Le Pron]]></name>
  </wpt>
  <wpt lat="46.25613" lon="6.79229">
    <ele>1655</ele>
    <name><![CDATA[Chemin empierré]]></name>
  </wpt>
  <wpt lat="46.25333" lon="6.79519">
    <ele>1581</ele>
    <name><![CDATA[Bifurcation]]></name>
  </wpt>
  <wpt lat="46.24843" lon="6.799">
    <ele>1436</ele>
    <name><![CDATA[Sur le Crac]]></name>
  </wpt>
  <wpt lat="46.25032" lon="6.8095">
    <ele>1166</ele>
    <name><![CDATA[Chapelle de Très Les Pierres]]></name>
  </wpt>
  <trk>
    <name><![CDATA[Les Mattes par Les Boudimes]]></name>
    <trkseg>
      <trkpt lat="46.25032" lon="6.8095">
        <ele>1166</ele>
        <time>2017-08-09T10:29:32+02:00</time>
      </trkpt>
      <trkpt lat="46.25035" lon="6.80923">
        <ele>1169</ele>
        <time>2017-08-09T10:30:22+02:00</time>
      </trkpt>
      <trkpt lat="46.25045" lon="6.80907">
        <ele>1173</ele>
        <time>2017-08-09T10:30:48+02:00</time>
      </trkpt>
      <trkpt lat="46.2506" lon="6.80877">
        <ele>1180</ele>
        <time>2017-08-09T10:31:15+02:00</time>
      </trkpt>
      <trkpt lat="46.2507" lon="6.80867">
        <ele>1184</ele>
      </trkpt>
      <trkpt lat="46.25085" lon="6.8087">
        <ele>1188</ele>
      </trkpt>
      <trkpt lat="46.2511" lon="6.8088">
        <ele>1194</ele>
      </trkpt>
      <trkpt lat="46.25155" lon="6.80906">
        <ele>1202</ele>
        <time>2017-08-09T10:32:04+02:00</time>
      </trkpt>
      <trkpt lat="46.25184" lon="6.80925">
        <ele>1207</ele>
        <time>2017-08-09T10:32:51+02:00</time>
      </trkpt>
      <trkpt lat="46.25207" lon="6.80936">
        <ele>1211</ele>
        <time>2017-08-09T10:33:22+02:00</time>
      </trkpt>
      <trkpt lat="46.25228" lon="6.8095">
        <ele>1213</ele>
        <time>2017-08-09T10:33:42+02:00</time>
      </trkpt>
      <trkpt lat="46.25249" lon="6.80963">
        <ele>1214</ele>
        <time>2017-08-09T10:34:01+02:00</time>
      </trkpt>
      <trkpt lat="46.25271" lon="6.8097">
        <ele>1217</ele>
        <time>2017-08-09T10:34:26+02:00</time>
      </trkpt>
      <trkpt lat="46.25293" lon="6.8097">
        <ele>1224</ele>
        <time>2017-08-09T10:34:52+02:00</time>
      </trkpt>
      <trkpt lat="46.25315" lon="6.80978">
        <ele>1227</ele>
        <time>2017-08-09T10:35:21+02:00</time>
      </trkpt>
      <trkpt lat="46.25334" lon="6.80998">
        <ele>1224</ele>
        <time>2017-08-09T10:35:45+02:00</time>
      </trkpt>
      <trkpt lat="46.25355" lon="6.81009">
        <ele>1231</ele>
        <time>2017-08-09T10:36:12+02:00</time>
      </trkpt>
      <trkpt lat="46.25371" lon="6.81033">
        <ele>1230</ele>
        <time>2017-08-09T10:36:46+02:00</time>
      </trkpt>
      <trkpt lat="46.25392" lon="6.81045">
        <ele>1235</ele>
        <time>2017-08-09T10:37:04+02:00</time>
      </trkpt>
      <trkpt lat="46.25411" lon="6.81065">
        <ele>1236</ele>
        <time>2017-08-09T10:37:26+02:00</time>
      </trkpt>
      <trkpt lat="46.2543" lon="6.81083">
        <ele>1238</ele>
        <time>2017-08-09T10:37:47+02:00</time>
      </trkpt>
      <trkpt lat="46.25449" lon="6.81104">
        <ele>1240</ele>
        <time>2017-08-09T10:38:13+02:00</time>
      </trkpt>
      <trkpt lat="46.25468" lon="6.81124">
        <ele>1242</ele>
        <time>2017-08-09T10:38:33+02:00</time>
      </trkpt>
      <trkpt lat="46.25482" lon="6.81149">
        <ele>1239</ele>
        <time>2017-08-09T10:38:55+02:00</time>
      </trkpt>
      <trkpt lat="46.25497" lon="6.81175">
        <ele>1237</ele>
        <time>2017-08-09T10:39:13+02:00</time>
      </trkpt>
      <trkpt lat="46.25518" lon="6.81188">
        <ele>1244</ele>
        <time>2017-08-09T10:39:33+02:00</time>
      </trkpt>
      <trkpt lat="46.25522" lon="6.81221">
        <ele>1237</ele>
        <time>2017-08-09T10:40:01+02:00</time>
      </trkpt>
      <trkpt lat="46.25554" lon="6.8127">
        <ele>1241</ele>
        <time>2017-08-09T10:40:45+02:00</time>
      </trkpt>
      <trkpt lat="46.25565" lon="6.81298">
        <ele>1238</ele>
        <time>2017-08-09T10:41:06+02:00</time>
      </trkpt>
      <trkpt lat="46.25576" lon="6.81328">
        <ele>1234</ele>
        <time>2017-08-09T10:43:43+02:00</time>
      </trkpt>
      <trkpt lat="46.25589" lon="6.81355">
        <ele>1235</ele>
        <time>2017-08-09T10:44:06+02:00</time>
      </trkpt>
      <trkpt lat="46.25603" lon="6.81381">
        <ele>1238</ele>
        <time>2017-08-09T10:44:33+02:00</time>
      </trkpt>
      <trkpt lat="46.25617" lon="6.81408">
        <ele>1239</ele>
        <time>2017-08-09T10:45:12+02:00</time>
      </trkpt>
      <trkpt lat="46.2563" lon="6.81437">
        <ele>1240</ele>
        <time>2017-08-09T10:45:44+02:00</time>
      </trkpt>
      <trkpt lat="46.25645" lon="6.81461">
        <ele>1243</ele>
        <time>2017-08-09T10:46:07+02:00</time>
      </trkpt>
      <trkpt lat="46.25663" lon="6.81483">
        <ele>1247</ele>
        <time>2017-08-09T10:46:37+02:00</time>
      </trkpt>
      <trkpt lat="46.25681" lon="6.81505">
        <ele>1253</ele>
        <time>2017-08-09T10:47:04+02:00</time>
      </trkpt>
      <trkpt lat="46.25693" lon="6.81532">
        <ele>1253</ele>
        <time>2017-08-09T10:47:34+02:00</time>
      </trkpt>
      <trkpt lat="46.25715" lon="6.81545">
        <ele>1264</ele>
        <time>2017-08-09T10:48:04+02:00</time>
      </trkpt>
      <trkpt lat="46.25733" lon="6.81565">
        <ele>1270</ele>
        <time>2017-08-09T10:48:34+02:00</time>
      </trkpt>
      <trkpt lat="46.25749" lon="6.81589">
        <ele>1273</ele>
        <time>2017-08-09T10:49:05+02:00</time>
      </trkpt>
      <trkpt lat="46.2577" lon="6.81602">
        <ele>1281</ele>
        <time>2017-08-09T10:49:39+02:00</time>
      </trkpt>
      <trkpt lat="46.25787" lon="6.81624">
        <ele>1284</ele>
        <time>2017-08-09T10:50:10+02:00</time>
      </trkpt>
      <trkpt lat="46.25807" lon="6.81641">
        <ele>1290</ele>
        <time>2017-08-09T10:50:44+02:00</time>
      </trkpt>
      <trkpt lat="46.25827" lon="6.81655">
        <ele>1297</ele>
        <time>2017-08-09T10:51:18+02:00</time>
      </trkpt>
      <trkpt lat="46.25848" lon="6.81669">
        <ele>1304</ele>
        <time>2017-08-09T10:52:04+02:00</time>
      </trkpt>
      <trkpt lat="46.25862" lon="6.81698">
        <ele>1303</ele>
        <time>2017-08-09T10:58:14+02:00</time>
      </trkpt>
      <trkpt lat="46.2588" lon="6.81719">
        <ele>1308</ele>
        <time>2017-08-09T10:58:43+02:00</time>
      </trkpt>
      <trkpt lat="46.25899" lon="6.81737">
        <ele>1314</ele>
        <time>2017-08-09T10:59:07+02:00</time>
      </trkpt>
      <trkpt lat="46.25915" lon="6.81763">
        <ele>1316</ele>
        <time>2017-08-09T10:59:29+02:00</time>
      </trkpt>
      <trkpt lat="46.25934" lon="6.81781">
        <ele>1322</ele>
        <time>2017-08-09T10:59:51+02:00</time>
      </trkpt>
      <trkpt lat="46.25932" lon="6.81814">
        <ele>1312</ele>
        <time>2017-08-09T11:00:22+02:00</time>
      </trkpt>
      <trkpt lat="46.25938" lon="6.81846">
        <ele>1309</ele>
        <time>2017-08-09T11:00:49+02:00</time>
      </trkpt>
      <trkpt lat="46.25949" lon="6.81874">
        <ele>1311</ele>
        <time>2017-08-09T11:01:14+02:00</time>
      </trkpt>
      <trkpt lat="46.25967" lon="6.81893">
        <ele>1319</ele>
        <time>2017-08-09T11:01:55+02:00</time>
      </trkpt>
      <trkpt lat="46.25979" lon="6.81922">
        <ele>1320</ele>
        <time>2017-08-09T11:02:21+02:00</time>
      </trkpt>
      <trkpt lat="46.25998" lon="6.81943">
        <ele>1328</ele>
        <time>2017-08-09T11:03:12+02:00</time>
      </trkpt>
      <trkpt lat="46.2601" lon="6.81971">
        <ele>1330</ele>
        <time>2017-08-09T11:03:39+02:00</time>
      </trkpt>
      <trkpt lat="46.26027" lon="6.81993">
        <ele>1337</ele>
        <time>2017-08-09T11:03:59+02:00</time>
      </trkpt>
      <trkpt lat="46.2603" lon="6.82027">
        <ele>1333</ele>
        <time>2017-08-09T11:04:27+02:00</time>
      </trkpt>
      <trkpt lat="46.26034" lon="6.82059">
        <ele>1331</ele>
        <time>2017-08-09T11:04:53+02:00</time>
      </trkpt>
      <trkpt lat="46.26042" lon="6.8209">
        <ele>1333</ele>
        <time>2017-08-09T11:05:50+02:00</time>
      </trkpt>
      <trkpt lat="46.26048" lon="6.82122">
        <ele>1334</ele>
        <time>2017-08-09T11:06:41+02:00</time>
      </trkpt>
      <trkpt lat="46.26047" lon="6.82155">
        <ele>1333</ele>
        <time>2017-08-09T11:06:58+02:00</time>
      </trkpt>
      <trkpt lat="46.26044" lon="6.82189">
        <ele>1328</ele>
        <time>2017-08-09T11:07:18+02:00</time>
      </trkpt>
      <trkpt lat="46.26058" lon="6.82216">
        <ele>1336</ele>
        <time>2017-08-09T11:07:58+02:00</time>
      </trkpt>
      <trkpt lat="46.2607" lon="6.82244">
        <ele>1343</ele>
        <time>2017-08-09T11:08:25+02:00</time>
      </trkpt>
      <trkpt lat="46.26077" lon="6.82275">
        <ele>1347</ele>
        <time>2017-08-09T11:09:10+02:00</time>
      </trkpt>
      <trkpt lat="46.2608" lon="6.82308">
        <ele>1348</ele>
        <time>2017-08-09T11:09:28+02:00</time>
      </trkpt>
      <trkpt lat="46.26083" lon="6.82341">
        <ele>1350</ele>
        <time>2017-08-09T11:10:01+02:00</time>
      </trkpt>
      <trkpt lat="46.26083" lon="6.82375">
        <ele>1348</ele>
        <time>2017-08-09T11:10:25+02:00</time>
      </trkpt>
      <trkpt lat="46.26086" lon="6.82407">
        <ele>1349</ele>
        <time>2017-08-09T11:10:51+02:00</time>
      </trkpt>
      <trkpt lat="46.2609" lon="6.82439">
        <ele>1349</ele>
        <time>2017-08-09T11:11:33+02:00</time>
      </trkpt>
      <trkpt lat="46.26088" lon="6.82472">
        <ele>1346</ele>
        <time>2017-08-09T11:11:53+02:00</time>
      </trkpt>
      <trkpt lat="46.26091" lon="6.82506">
        <ele>1345</ele>
        <time>2017-08-09T11:12:17+02:00</time>
      </trkpt>
      <trkpt lat="46.26107" lon="6.82531">
        <ele>1351</ele>
        <time>2017-08-09T11:12:42+02:00</time>
      </trkpt>
      <trkpt lat="46.26116" lon="6.82562">
        <ele>1353</ele>
        <time>2017-08-09T11:13:04+02:00</time>
      </trkpt>
      <trkpt lat="46.26135" lon="6.82581">
        <ele>1363</ele>
        <time>2017-08-09T11:13:29+02:00</time>
      </trkpt>
      <trkpt lat="46.26148" lon="6.82607">
        <ele>1364</ele>
        <time>2017-08-09T11:13:48+02:00</time>
      </trkpt>
      <trkpt lat="46.26167" lon="6.82626">
        <ele>1369</ele>
        <time>2017-08-09T11:14:38+02:00</time>
      </trkpt>
      <trkpt lat="46.26186" lon="6.82643">
        <ele>1371</ele>
        <time>2017-08-09T11:15:00+02:00</time>
      </trkpt>
      <trkpt lat="46.26209" lon="6.8265">
        <ele>1378</ele>
        <time>2017-08-09T11:15:28+02:00</time>
      </trkpt>
      <trkpt lat="46.26232" lon="6.82658">
        <ele>1386</ele>
        <time>2017-08-09T11:20:55+02:00</time>
      </trkpt>
      <trkpt lat="46.26254" lon="6.82646">
        <ele>1396</ele>
        <time>2017-08-09T11:23:35+02:00</time>
      </trkpt>
      <trkpt lat="46.26276" lon="6.82648">
        <ele>1398</ele>
        <time>2017-08-09T11:24:03+02:00</time>
      </trkpt>
      <trkpt lat="46.26299" lon="6.82647">
        <ele>1401</ele>
        <time>2017-08-09T11:24:31+02:00</time>
      </trkpt>
      <trkpt lat="46.26321" lon="6.82648">
        <ele>1403</ele>
        <time>2017-08-09T11:25:00+02:00</time>
      </trkpt>
      <trkpt lat="46.26344" lon="6.82647">
        <ele>1406</ele>
        <time>2017-08-09T11:25:25+02:00</time>
      </trkpt>
      <trkpt lat="46.26367" lon="6.82646">
        <ele>1409</ele>
        <time>2017-08-09T11:25:53+02:00</time>
      </trkpt>
      <trkpt lat="46.2639" lon="6.82641">
        <ele>1413</ele>
        <time>2017-08-09T11:26:21+02:00</time>
      </trkpt>
      <trkpt lat="46.26412" lon="6.82632">
        <ele>1417</ele>
        <time>2017-08-09T11:27:00+02:00</time>
      </trkpt>
      <trkpt lat="46.26434" lon="6.82629">
        <ele>1423</ele>
        <time>2017-08-09T11:27:27+02:00</time>
      </trkpt>
      <trkpt lat="46.26456" lon="6.82635">
        <ele>1426</ele>
        <time>2017-08-09T11:29:25+02:00</time>
      </trkpt>
      <trkpt lat="46.26479" lon="6.82641">
        <ele>1430</ele>
        <time>2017-08-09T11:30:00+02:00</time>
      </trkpt>
      <trkpt lat="46.26502" lon="6.82641">
        <ele>1435</ele>
        <time>2017-08-09T11:31:19+02:00</time>
      </trkpt>
      <trkpt lat="46.26524" lon="6.82629">
        <ele>1444</ele>
        <time>2017-08-09T11:32:18+02:00</time>
      </trkpt>
      <trkpt lat="46.26547" lon="6.82621">
        <ele>1453</ele>
        <time>2017-08-09T11:32:55+02:00</time>
      </trkpt>
      <trkpt lat="46.2657" lon="6.82621">
        <ele>1459</ele>
        <time>2017-08-09T11:33:38+02:00</time>
      </trkpt>
      <trkpt lat="46.26589" lon="6.82603">
        <ele>1469</ele>
        <time>2017-08-09T11:34:04+02:00</time>
      </trkpt>
      <trkpt lat="46.2661" lon="6.82589">
        <ele>1474</ele>
        <time>2017-08-09T11:34:48+02:00</time>
      </trkpt>
      <trkpt lat="46.26632" lon="6.82579">
        <ele>1477</ele>
        <time>2017-08-09T11:35:16+02:00</time>
      </trkpt>
      <trkpt lat="46.26648" lon="6.82556">
        <ele>1484</ele>
        <time>2017-08-09T11:36:03+02:00</time>
      </trkpt>
      <trkpt lat="46.26667" lon="6.82538">
        <ele>1490</ele>
        <time>2017-08-09T11:36:29+02:00</time>
      </trkpt>
      <trkpt lat="46.26682" lon="6.82512">
        <ele>1494</ele>
        <time>2017-08-09T11:37:16+02:00</time>
      </trkpt>
      <trkpt lat="46.26684" lon="6.8248">
        <ele>1500</ele>
        <time>2017-08-09T11:37:56+02:00</time>
      </trkpt>
      <trkpt lat="46.26674" lon="6.82449">
        <ele>1508</ele>
        <time>2017-08-09T11:39:46+02:00</time>
      </trkpt>
      <trkpt lat="46.2666" lon="6.82423">
        <ele>1513</ele>
        <time>2017-08-09T11:40:13+02:00</time>
      </trkpt>
      <trkpt lat="46.26644" lon="6.824">
        <ele>1515</ele>
        <time>2017-08-09T11:40:34+02:00</time>
      </trkpt>
      <trkpt lat="46.26623" lon="6.82386">
        <ele>1515</ele>
        <time>2017-08-09T11:40:55+02:00</time>
      </trkpt>
      <trkpt lat="46.26602" lon="6.82373">
        <ele>1515</ele>
        <time>2017-08-09T11:41:15+02:00</time>
      </trkpt>
      <trkpt lat="46.26599" lon="6.8234">
        <ele>1519</ele>
        <time>2017-08-09T11:43:43+02:00</time>
      </trkpt>
      <trkpt lat="46.26605" lon="6.82308">
        <ele>1525</ele>
        <time>2017-08-09T11:44:23+02:00</time>
      </trkpt>
      <trkpt lat="46.26622" lon="6.82284">
        <ele>1531</ele>
        <time>2017-08-09T11:45:15+02:00</time>
      </trkpt>
      <trkpt lat="46.26638" lon="6.82261">
        <ele>1536</ele>
        <time>2017-08-09T11:46:25+02:00</time>
      </trkpt>
      <trkpt lat="46.2665" lon="6.82233">
        <ele>1541</ele>
        <time>2017-08-09T11:46:55+02:00</time>
      </trkpt>
      <trkpt lat="46.26649" lon="6.822">
        <ele>1547</ele>
        <time>2017-08-09T11:48:10+02:00</time>
      </trkpt>
      <trkpt lat="46.26631" lon="6.82179">
        <ele>1551</ele>
        <time>2017-08-09T11:49:28+02:00</time>
      </trkpt>
      <trkpt lat="46.26619" lon="6.82151">
        <ele>1556</ele>
        <time>2017-08-09T11:50:13+02:00</time>
      </trkpt>
      <trkpt lat="46.26603" lon="6.82127">
        <ele>1561</ele>
        <time>2017-08-09T11:51:02+02:00</time>
      </trkpt>
      <trkpt lat="46.26586" lon="6.82106">
        <ele>1567</ele>
        <time>2017-08-09T11:51:28+02:00</time>
      </trkpt>
      <trkpt lat="46.26567" lon="6.82088">
        <ele>1569</ele>
        <time>2017-08-09T11:52:18+02:00</time>
      </trkpt>
      <trkpt lat="46.26568" lon="6.82055">
        <ele>1574</ele>
        <time>2017-08-09T11:53:54+02:00</time>
      </trkpt>
      <trkpt lat="46.26569" lon="6.82022">
        <ele>1579</ele>
        <time>2017-08-09T11:54:23+02:00</time>
      </trkpt>
      <trkpt lat="46.26567" lon="6.81989">
        <ele>1584</ele>
        <time>2017-08-09T11:54:53+02:00</time>
      </trkpt>
      <trkpt lat="46.26579" lon="6.81961">
        <ele>1590</ele>
        <time>2017-08-09T11:56:34+02:00</time>
      </trkpt>
      <trkpt lat="46.2658" lon="6.81928">
        <ele>1595</ele>
        <time>2017-08-09T11:57:15+02:00</time>
      </trkpt>
      <trkpt lat="46.26576" lon="6.81895">
        <ele>1600</ele>
        <time>2017-08-09T11:58:03+02:00</time>
      </trkpt>
      <trkpt lat="46.26577" lon="6.81863">
        <ele>1605</ele>
        <time>2017-08-09T11:58:42+02:00</time>
      </trkpt>
      <trkpt lat="46.26574" lon="6.81831">
        <ele>1610</ele>
        <time>2017-08-09T12:00:21+02:00</time>
      </trkpt>
      <trkpt lat="46.26567" lon="6.81799">
        <ele>1615</ele>
        <time>2017-08-09T12:00:51+02:00</time>
      </trkpt>
      <trkpt lat="46.26568" lon="6.81766">
        <ele>1620</ele>
        <time>2017-08-09T12:01:19+02:00</time>
      </trkpt>
      <trkpt lat="46.2657" lon="6.81733">
        <ele>1625</ele>
        <time>2017-08-09T12:05:07+02:00</time>
      </trkpt>
      <trkpt lat="46.26573" lon="6.817">
        <ele>1631</ele>
        <time>2017-08-09T12:05:33+02:00</time>
      </trkpt>
      <trkpt lat="46.26575" lon="6.81666">
        <ele>1636</ele>
        <time>2017-08-09T12:06:09+02:00</time>
      </trkpt>
      <trkpt lat="46.26585" lon="6.81637">
        <ele>1642</ele>
        <time>2017-08-09T12:06:49+02:00</time>
      </trkpt>
      <trkpt lat="46.26596" lon="6.81608">
        <ele>1646</ele>
        <time>2017-08-09T12:07:23+02:00</time>
      </trkpt>
      <trkpt lat="46.26604" lon="6.81577">
        <ele>1651</ele>
        <time>2017-08-09T12:08:10+02:00</time>
      </trkpt>
      <trkpt lat="46.26598" lon="6.81546">
        <ele>1659</ele>
        <time>2017-08-09T12:09:23+02:00</time>
      </trkpt>
      <trkpt lat="46.26597" lon="6.81511">
        <ele>1667</ele>
        <time>2017-08-09T12:09:54+02:00</time>
      </trkpt>
      <trkpt lat="46.26577" lon="6.81496">
        <ele>1672</ele>
        <time>2017-08-09T12:10:38+02:00</time>
      </trkpt>
      <trkpt lat="46.26555" lon="6.81485">
        <ele>1676</ele>
        <time>2017-08-09T12:11:18+02:00</time>
      </trkpt>
      <trkpt lat="46.26533" lon="6.81484">
        <ele>1678</ele>
        <time>2017-08-09T12:11:49+02:00</time>
      </trkpt>
      <trkpt lat="46.26511" lon="6.81494">
        <ele>1677</ele>
        <time>2017-08-09T12:13:42+02:00</time>
      </trkpt>
      <trkpt lat="46.26489" lon="6.81495">
        <ele>1674</ele>
        <time>2017-08-09T12:14:14+02:00</time>
      </trkpt>
      <trkpt lat="46.26492" lon="6.81496">
        <ele>1675</ele>
        <time>2017-08-09T12:15:25+02:00</time>
      </trkpt>
      <trkpt lat="46.26508" lon="6.81473">
        <ele>1683</ele>
        <time>2017-08-09T12:16:00+02:00</time>
      </trkpt>
      <trkpt lat="46.26515" lon="6.81441">
        <ele>1691</ele>
        <time>2017-08-09T12:16:38+02:00</time>
      </trkpt>
      <trkpt lat="46.26515" lon="6.81408">
        <ele>1700</ele>
        <time>2017-08-09T12:17:25+02:00</time>
      </trkpt>
      <trkpt lat="46.26502" lon="6.81381">
        <ele>1708</ele>
        <time>2017-08-09T12:18:37+02:00</time>
      </trkpt>
      <trkpt lat="46.26479" lon="6.81379">
        <ele>1705</ele>
        <time>2017-08-09T12:20:07+02:00</time>
      </trkpt>
      <trkpt lat="46.26465" lon="6.81354">
        <ele>1709</ele>
        <time>2017-08-09T12:22:50+02:00</time>
      </trkpt>
      <trkpt lat="46.26469" lon="6.81321">
        <ele>1719</ele>
        <time>2017-08-09T12:23:42+02:00</time>
      </trkpt>
      <trkpt lat="46.26483" lon="6.81295">
        <ele>1728</ele>
        <time>2017-08-09T12:24:30+02:00</time>
      </trkpt>
      <trkpt lat="46.26465" lon="6.81274">
        <ele>1732</ele>
        <time>2017-08-09T12:26:08+02:00</time>
      </trkpt>
      <trkpt lat="46.26446" lon="6.81257">
        <ele>1736</ele>
        <time>2017-08-09T12:26:43+02:00</time>
      </trkpt>
      <trkpt lat="46.26427" lon="6.81238">
        <ele>1740</ele>
        <time>2017-08-09T12:27:19+02:00</time>
      </trkpt>
      <trkpt lat="46.26417" lon="6.81208">
        <ele>1748</ele>
        <time>2017-08-09T12:29:56+02:00</time>
      </trkpt>
      <trkpt lat="46.26405" lon="6.8118">
        <ele>1752</ele>
        <time>2017-08-09T12:30:42+02:00</time>
      </trkpt>
      <trkpt lat="46.26396" lon="6.8115">
        <ele>1758</ele>
        <time>2017-08-09T12:31:33+02:00</time>
      </trkpt>
      <trkpt lat="46.26418" lon="6.81137">
        <ele>1767</ele>
        <time>2017-08-09T12:33:32+02:00</time>
      </trkpt>
      <trkpt lat="46.26437" lon="6.81122">
        <ele>1770</ele>
        <time>2017-08-09T12:34:23+02:00</time>
      </trkpt>
      <trkpt lat="46.26452" lon="6.81097">
        <ele>1773</ele>
        <time>2017-08-09T12:35:50+02:00</time>
      </trkpt>
      <trkpt lat="46.26451" lon="6.81098">
        <ele>1773</ele>
        <time>2017-08-09T12:39:48+02:00</time>
      </trkpt>
      <trkpt lat="46.26464" lon="6.81072">
        <ele>1774</ele>
        <time>2017-08-09T12:43:36+02:00</time>
      </trkpt>
      <trkpt lat="46.26469" lon="6.81039">
        <ele>1774</ele>
        <time>2017-08-09T12:43:58+02:00</time>
      </trkpt>
      <trkpt lat="46.26491" lon="6.81045">
        <ele>1770</ele>
        <time>2017-08-09T12:44:47+02:00</time>
      </trkpt>
      <trkpt lat="46.26514" lon="6.8105">
        <ele>1763</ele>
        <time>2017-08-09T12:45:36+02:00</time>
      </trkpt>
      <trkpt lat="46.26533" lon="6.81032">
        <ele>1757</ele>
        <time>2017-08-09T12:46:07+02:00</time>
      </trkpt>
      <trkpt lat="46.26546" lon="6.81004">
        <ele>1757</ele>
        <time>2017-08-09T12:46:27+02:00</time>
      </trkpt>
      <trkpt lat="46.26551" lon="6.80972">
        <ele>1749</ele>
        <time>2017-08-09T12:47:03+02:00</time>
      </trkpt>
      <trkpt lat="46.26547" lon="6.8094">
        <ele>1742</ele>
        <time>2017-08-09T12:47:45+02:00</time>
      </trkpt>
      <trkpt lat="46.26533" lon="6.80914">
        <ele>1739</ele>
        <time>2017-08-09T12:48:12+02:00</time>
      </trkpt>
      <trkpt lat="46.26512" lon="6.80901">
        <ele>1740</ele>
        <time>2017-08-09T12:48:40+02:00</time>
      </trkpt>
      <trkpt lat="46.2651" lon="6.80836">
        <ele>1729</ele>
        <time>2017-08-09T12:49:26+02:00</time>
      </trkpt>
      <trkpt lat="46.26489" lon="6.80777">
        <ele>1739</ele>
        <time>2017-08-09T12:50:30+02:00</time>
      </trkpt>
      <trkpt lat="46.26486" lon="6.80744">
        <ele>1741</ele>
        <time>2017-08-09T12:51:09+02:00</time>
      </trkpt>
      <trkpt lat="46.26473" lon="6.80717">
        <ele>1749</ele>
        <time>2017-08-09T12:51:38+02:00</time>
      </trkpt>
      <trkpt lat="46.2647" lon="6.80685">
        <ele>1750</ele>
        <time>2017-08-09T12:52:06+02:00</time>
      </trkpt>
      <trkpt lat="46.26464" lon="6.80653">
        <ele>1751</ele>
        <time>2017-08-09T12:52:37+02:00</time>
      </trkpt>
      <trkpt lat="46.26459" lon="6.80621">
        <ele>1750</ele>
        <time>2017-08-09T12:52:58+02:00</time>
      </trkpt>
      <trkpt lat="46.26452" lon="6.8059">
        <ele>1749</ele>
        <time>2017-08-09T12:54:08+02:00</time>
      </trkpt>
      <trkpt lat="46.2644" lon="6.80562">
        <ele>1750</ele>
        <time>2017-08-09T12:54:34+02:00</time>
      </trkpt>
      <trkpt lat="46.26435" lon="6.8053">
        <ele>1749</ele>
        <time>2017-08-09T12:54:59+02:00</time>
      </trkpt>
      <trkpt lat="46.26423" lon="6.80502">
        <ele>1749</ele>
        <time>2017-08-09T12:55:21+02:00</time>
      </trkpt>
      <trkpt lat="46.26428" lon="6.80467">
        <ele>1749</ele>
        <time>2017-08-09T12:55:48+02:00</time>
      </trkpt>
      <trkpt lat="46.26429" lon="6.80433">
        <ele>1751</ele>
        <time>2017-08-09T12:56:13+02:00</time>
      </trkpt>
      <trkpt lat="46.26433" lon="6.804">
        <ele>1750</ele>
        <time>2017-08-09T12:57:10+02:00</time>
      </trkpt>
      <trkpt lat="46.26431" lon="6.80366">
        <ele>1749</ele>
        <time>2017-08-09T12:58:52+02:00</time>
      </trkpt>
      <trkpt lat="46.26419" lon="6.80336">
        <ele>1750</ele>
        <time>2017-08-09T12:59:15+02:00</time>
      </trkpt>
      <trkpt lat="46.26399" lon="6.80319">
        <ele>1754</ele>
        <time>2017-08-09T12:59:41+02:00</time>
      </trkpt>
      <trkpt lat="46.26377" lon="6.8032">
        <ele>1761</ele>
        <time>2017-08-09T13:00:19+02:00</time>
      </trkpt>
      <trkpt lat="46.26354" lon="6.80323">
        <ele>1767</ele>
        <time>2017-08-09T13:00:51+02:00</time>
      </trkpt>
      <trkpt lat="46.26331" lon="6.80322">
        <ele>1774</ele>
        <time>2017-08-09T13:01:29+02:00</time>
      </trkpt>
      <trkpt lat="46.26311" lon="6.80337">
        <ele>1782</ele>
        <time>2017-08-09T13:02:33+02:00</time>
      </trkpt>
      <trkpt lat="46.26291" lon="6.80319">
        <ele>1792</ele>
        <time>2017-08-09T13:03:29+02:00</time>
      </trkpt>
      <trkpt lat="46.26285" lon="6.80288">
        <ele>1796</ele>
        <time>2017-08-09T13:04:01+02:00</time>
      </trkpt>
      <trkpt lat="46.26281" lon="6.80256">
        <ele>1800</ele>
        <time>2017-08-09T13:05:09+02:00</time>
      </trkpt>
      <trkpt lat="46.26291" lon="6.80226">
        <ele>1799</ele>
        <time>2017-08-09T13:08:42+02:00</time>
      </trkpt>
      <trkpt lat="46.26285" lon="6.80195">
        <ele>1805</ele>
        <time>2017-08-09T13:09:05+02:00</time>
      </trkpt>
      <trkpt lat="46.26264" lon="6.80181">
        <ele>1816</ele>
        <time>2017-08-09T13:09:48+02:00</time>
      </trkpt>
      <trkpt lat="46.26269" lon="6.80149">
        <ele>1820</ele>
        <time>2017-08-09T13:13:27+02:00</time>
      </trkpt>
      <trkpt lat="46.26268" lon="6.80117">
        <ele>1831</ele>
        <time>2017-08-09T13:14:27+02:00</time>
      </trkpt>
      <trkpt lat="46.26267" lon="6.80084">
        <ele>1842</ele>
        <time>2017-08-09T13:15:28+02:00</time>
      </trkpt>
      <trkpt lat="46.26259" lon="6.80054">
        <ele>1850</ele>
        <time>2017-08-09T13:16:18+02:00</time>
      </trkpt>
      <trkpt lat="46.26234" lon="6.79999">
        <ele>1868</ele>
        <time>2017-08-09T13:18:29+02:00</time>
      </trkpt>
      <trkpt lat="46.26226" lon="6.79969">
        <ele>1873</ele>
        <time>2017-08-09T13:19:39+02:00</time>
      </trkpt>
      <trkpt lat="46.26224" lon="6.79937">
        <ele>1875</ele>
        <time>2017-08-09T13:20:28+02:00</time>
      </trkpt>
      <trkpt lat="46.26224" lon="6.79904">
        <ele>1878</ele>
        <time>2017-08-09T13:24:23+02:00</time>
      </trkpt>
      <trkpt lat="46.26211" lon="6.79877">
        <ele>1890</ele>
        <time>2017-08-09T13:25:57+02:00</time>
      </trkpt>
      <trkpt lat="46.26197" lon="6.79851">
        <ele>1900</ele>
        <time>2017-08-09T13:27:31+02:00</time>
      </trkpt>
      <trkpt lat="46.26174" lon="6.79849">
        <ele>1908</ele>
        <time>2017-08-09T13:28:04+02:00</time>
      </trkpt>
      <trkpt lat="46.26159" lon="6.79874">
        <ele>1909</ele>
        <time>2017-08-09T13:29:27+02:00</time>
      </trkpt>
      <trkpt lat="46.26158" lon="6.79841">
        <ele>1911</ele>
        <time>2017-08-09T13:32:45+02:00</time>
      </trkpt>
      <trkpt lat="46.26156" lon="6.79808">
        <ele>1914</ele>
        <time>2017-08-09T13:34:20+02:00</time>
      </trkpt>
      <trkpt lat="46.26143" lon="6.79781">
        <ele>1916</ele>
        <time>2017-08-09T13:37:14+02:00</time>
      </trkpt>
      <trkpt lat="46.26122" lon="6.79766">
        <ele>1915</ele>
        <time>2017-08-09T13:39:42+02:00</time>
      </trkpt>
      <trkpt lat="46.261" lon="6.79756">
        <ele>1913</ele>
        <time>2017-08-09T13:40:03+02:00</time>
      </trkpt>
      <trkpt lat="46.26078" lon="6.7975">
        <ele>1910</ele>
        <time>2017-08-09T13:40:25+02:00</time>
      </trkpt>
      <trkpt lat="46.26056" lon="6.79737">
        <ele>1906</ele>
        <time>2017-08-09T13:40:46+02:00</time>
      </trkpt>
      <trkpt lat="46.2603" lon="6.79734">
        <ele>1901</ele>
        <time>2017-08-09T13:41:37+02:00</time>
      </trkpt>
      <trkpt lat="46.26028" lon="6.7972">
        <ele>1900</ele>
        <time>2017-08-09T13:42:03+02:00</time>
      </trkpt>
      <trkpt lat="46.26023" lon="6.79711">
        <ele>1899</ele>
        <time>2017-08-09T14:25:36+02:00</time>
      </trkpt>
      <trkpt lat="46.26019" lon="6.79698">
        <ele>1897</ele>
        <time>2017-08-09T14:26:50+02:00</time>
      </trkpt>
      <trkpt lat="46.2601" lon="6.79686">
        <ele>1894</ele>
        <time>2017-08-09T14:27:15+02:00</time>
      </trkpt>
      <trkpt lat="46.26014" lon="6.79654">
        <ele>1891</ele>
        <time>2017-08-09T14:27:49+02:00</time>
      </trkpt>
      <trkpt lat="46.26022" lon="6.79623">
        <ele>1886</ele>
        <time>2017-08-09T14:28:53+02:00</time>
      </trkpt>
      <trkpt lat="46.26025" lon="6.79589">
        <ele>1880</ele>
        <time>2017-08-09T14:29:22+02:00</time>
      </trkpt>
      <trkpt lat="46.26032" lon="6.79558">
        <ele>1879</ele>
        <time>2017-08-09T14:29:47+02:00</time>
      </trkpt>
      <trkpt lat="46.26042" lon="6.79528">
        <ele>1878</ele>
        <time>2017-08-09T14:31:22+02:00</time>
      </trkpt>
      <trkpt lat="46.26054" lon="6.79501">
        <ele>1879</ele>
        <time>2017-08-09T14:31:42+02:00</time>
      </trkpt>
      <trkpt lat="46.26069" lon="6.79474">
        <ele>1878</ele>
        <time>2017-08-09T14:32:05+02:00</time>
      </trkpt>
      <trkpt lat="46.26078" lon="6.79443">
        <ele>1875</ele>
        <time>2017-08-09T14:32:36+02:00</time>
      </trkpt>
      <trkpt lat="46.26083" lon="6.79411">
        <ele>1870</ele>
        <time>2017-08-09T14:33:00+02:00</time>
      </trkpt>
      <trkpt lat="46.26089" lon="6.79378">
        <ele>1867</ele>
        <time>2017-08-09T14:33:22+02:00</time>
      </trkpt>
      <trkpt lat="46.26091" lon="6.79345">
        <ele>1863</ele>
        <time>2017-08-09T14:33:45+02:00</time>
      </trkpt>
      <trkpt lat="46.26101" lon="6.79314">
        <ele>1868</ele>
        <time>2017-08-09T14:34:10+02:00</time>
      </trkpt>
      <trkpt lat="46.26102" lon="6.79281">
        <ele>1870</ele>
        <time>2017-08-09T14:34:40+02:00</time>
      </trkpt>
      <trkpt lat="46.26088" lon="6.79254">
        <ele>1863</ele>
        <time>2017-08-09T14:35:04+02:00</time>
      </trkpt>
      <trkpt lat="46.2607" lon="6.79275">
        <ele>1854</ele>
        <time>2017-08-09T14:35:27+02:00</time>
      </trkpt>
      <trkpt lat="46.26066" lon="6.79306">
        <ele>1851</ele>
        <time>2017-08-09T14:36:15+02:00</time>
      </trkpt>
      <trkpt lat="46.26059" lon="6.7934">
        <ele>1848</ele>
        <time>2017-08-09T14:36:44+02:00</time>
      </trkpt>
      <trkpt lat="46.26048" lon="6.79369">
        <ele>1850</ele>
        <time>2017-08-09T14:39:09+02:00</time>
      </trkpt>
      <trkpt lat="46.26037" lon="6.79397">
        <ele>1852</ele>
        <time>2017-08-09T14:39:36+02:00</time>
      </trkpt>
      <trkpt lat="46.26018" lon="6.79415">
        <ele>1849</ele>
        <time>2017-08-09T14:40:12+02:00</time>
      </trkpt>
      <trkpt lat="46.25997" lon="6.79427">
        <ele>1844</ele>
        <time>2017-08-09T14:41:39+02:00</time>
      </trkpt>
      <trkpt lat="46.25974" lon="6.79433">
        <ele>1837</ele>
        <time>2017-08-09T14:42:03+02:00</time>
      </trkpt>
      <trkpt lat="46.25949" lon="6.79435">
        <ele>1829</ele>
        <time>2017-08-09T14:42:26+02:00</time>
      </trkpt>
      <trkpt lat="46.25928" lon="6.79451">
        <ele>1822</ele>
        <time>2017-08-09T14:42:49+02:00</time>
      </trkpt>
      <trkpt lat="46.25925" lon="6.79483">
        <ele>1822</ele>
        <time>2017-08-09T14:44:09+02:00</time>
      </trkpt>
      <trkpt lat="46.25921" lon="6.79515">
        <ele>1823</ele>
        <time>2017-08-09T14:44:31+02:00</time>
      </trkpt>
      <trkpt lat="46.2591" lon="6.79543">
        <ele>1820</ele>
        <time>2017-08-09T14:44:56+02:00</time>
      </trkpt>
      <trkpt lat="46.25899" lon="6.79514">
        <ele>1812</ele>
        <time>2017-08-09T14:45:41+02:00</time>
      </trkpt>
      <trkpt lat="46.2588" lon="6.79497">
        <ele>1800</ele>
        <time>2017-08-09T14:47:26+02:00</time>
      </trkpt>
      <trkpt lat="46.25868" lon="6.79469">
        <ele>1794</ele>
        <time>2017-08-09T14:48:13+02:00</time>
      </trkpt>
      <trkpt lat="46.2585" lon="6.79447">
        <ele>1785</ele>
        <time>2017-08-09T14:51:20+02:00</time>
      </trkpt>
      <trkpt lat="46.2583" lon="6.79462">
        <ele>1775</ele>
        <time>2017-08-09T14:52:02+02:00</time>
      </trkpt>
      <trkpt lat="46.2581" lon="6.79446">
        <ele>1765</ele>
        <time>2017-08-09T14:52:55+02:00</time>
      </trkpt>
      <trkpt lat="46.25801" lon="6.79415">
        <ele>1759</ele>
        <time>2017-08-09T14:53:28+02:00</time>
      </trkpt>
      <trkpt lat="46.25787" lon="6.79441">
        <ele>1754</ele>
        <time>2017-08-09T14:54:12+02:00</time>
      </trkpt>
      <trkpt lat="46.25786" lon="6.79475">
        <ele>1755</ele>
        <time>2017-08-09T14:54:34+02:00</time>
      </trkpt>
      <trkpt lat="46.25776" lon="6.79504">
        <ele>1752</ele>
        <time>2017-08-09T14:55:17+02:00</time>
      </trkpt>
      <trkpt lat="46.25762" lon="6.79478">
        <ele>1744</ele>
        <time>2017-08-09T14:59:14+02:00</time>
      </trkpt>
      <trkpt lat="46.25753" lon="6.79448">
        <ele>1738</ele>
        <time>2017-08-09T14:59:38+02:00</time>
      </trkpt>
      <trkpt lat="46.25741" lon="6.79438">
        <ele>1732</ele>
        <time>2017-08-09T15:00:05+02:00</time>
      </trkpt>
      <trkpt lat="46.25729" lon="6.79426">
        <ele>1726</ele>
        <time>2017-08-09T15:00:38+02:00</time>
      </trkpt>
      <trkpt lat="46.25696" lon="6.79413">
        <ele>1710</ele>
        <time>2017-08-09T15:01:10+02:00</time>
      </trkpt>
      <trkpt lat="46.25711" lon="6.79383">
        <ele>1710</ele>
        <time>2017-08-09T15:02:40+02:00</time>
      </trkpt>
      <trkpt lat="46.25721" lon="6.79351">
        <ele>1707</ele>
        <time>2017-08-09T15:03:21+02:00</time>
      </trkpt>
      <trkpt lat="46.2573" lon="6.79321">
        <ele>1705</ele>
        <time>2017-08-09T15:03:41+02:00</time>
      </trkpt>
      <trkpt lat="46.25737" lon="6.7929">
        <ele>1703</ele>
        <time>2017-08-09T15:04:10+02:00</time>
      </trkpt>
      <trkpt lat="46.25741" lon="6.79256">
        <ele>1699</ele>
        <time>2017-08-09T15:04:35+02:00</time>
      </trkpt>
      <trkpt lat="46.25742" lon="6.79223">
        <ele>1699</ele>
        <time>2017-08-09T15:05:05+02:00</time>
      </trkpt>
      <trkpt lat="46.2575" lon="6.79192">
        <ele>1703</ele>
        <time>2017-08-09T15:07:59+02:00</time>
      </trkpt>
      <trkpt lat="46.25729" lon="6.79178">
        <ele>1697</ele>
        <time>2017-08-09T15:08:57+02:00</time>
      </trkpt>
      <trkpt lat="46.25706" lon="6.79179">
        <ele>1690</ele>
        <time>2017-08-09T15:09:49+02:00</time>
      </trkpt>
      <trkpt lat="46.25689" lon="6.79201">
        <ele>1682</ele>
        <time>2017-08-09T15:10:39+02:00</time>
      </trkpt>
      <trkpt lat="46.25668" lon="6.79215">
        <ele>1674</ele>
        <time>2017-08-09T15:11:18+02:00</time>
      </trkpt>
      <trkpt lat="46.25645" lon="6.79219">
        <ele>1666</ele>
        <time>2017-08-09T15:12:15+02:00</time>
      </trkpt>
      <trkpt lat="46.25622" lon="6.7922">
        <ele>1659</ele>
        <time>2017-08-09T15:12:48+02:00</time>
      </trkpt>
      <trkpt lat="46.25613" lon="6.79229">
        <ele>1655</ele>
        <time>2017-08-09T15:18:25+02:00</time>
      </trkpt>
      <trkpt lat="46.25591" lon="6.79216">
        <ele>1652</ele>
        <time>2017-08-09T15:19:11+02:00</time>
      </trkpt>
      <trkpt lat="46.25569" lon="6.79213">
        <ele>1648</ele>
        <time>2017-08-09T15:20:34+02:00</time>
      </trkpt>
      <trkpt lat="46.25546" lon="6.79216">
        <ele>1645</ele>
        <time>2017-08-09T15:21:02+02:00</time>
      </trkpt>
      <trkpt lat="46.25523" lon="6.7922">
        <ele>1642</ele>
        <time>2017-08-09T15:21:36+02:00</time>
      </trkpt>
      <trkpt lat="46.25502" lon="6.79232">
        <ele>1637</ele>
        <time>2017-08-09T15:22:04+02:00</time>
      </trkpt>
      <trkpt lat="46.25491" lon="6.79261">
        <ele>1633</ele>
        <time>2017-08-09T15:22:32+02:00</time>
      </trkpt>
      <trkpt lat="46.25468" lon="6.79259">
        <ele>1640</ele>
        <time>2017-08-09T15:23:16+02:00</time>
      </trkpt>
      <trkpt lat="46.25458" lon="6.79288">
        <ele>1636</ele>
        <time>2017-08-09T15:27:10+02:00</time>
      </trkpt>
      <trkpt lat="46.25449" lon="6.79318">
        <ele>1629</ele>
        <time>2017-08-09T15:27:35+02:00</time>
      </trkpt>
      <trkpt lat="46.25436" lon="6.79347">
        <ele>1622</ele>
        <time>2017-08-09T15:28:00+02:00</time>
      </trkpt>
      <trkpt lat="46.25424" lon="6.79374">
        <ele>1615</ele>
        <time>2017-08-09T15:28:28+02:00</time>
      </trkpt>
      <trkpt lat="46.25409" lon="6.79399">
        <ele>1609</ele>
        <time>2017-08-09T15:28:54+02:00</time>
      </trkpt>
      <trkpt lat="46.25389" lon="6.79416">
        <ele>1608</ele>
        <time>2017-08-09T15:29:23+02:00</time>
      </trkpt>
      <trkpt lat="46.25374" lon="6.7944">
        <ele>1605</ele>
        <time>2017-08-09T15:29:45+02:00</time>
      </trkpt>
      <trkpt lat="46.2536" lon="6.79466">
        <ele>1599</ele>
        <time>2017-08-09T15:30:15+02:00</time>
      </trkpt>
      <trkpt lat="46.25344" lon="6.79489">
        <ele>1591</ele>
        <time>2017-08-09T15:30:37+02:00</time>
      </trkpt>
      <trkpt lat="46.25333" lon="6.79519">
        <ele>1581</ele>
        <time>2017-08-09T15:31:01+02:00</time>
      </trkpt>
      <trkpt lat="46.25331" lon="6.79553">
        <ele>1571</ele>
        <time>2017-08-09T15:31:20+02:00</time>
      </trkpt>
      <trkpt lat="46.25321" lon="6.79583">
        <ele>1562</ele>
        <time>2017-08-09T15:31:47+02:00</time>
      </trkpt>
      <trkpt lat="46.253" lon="6.79576">
        <ele>1563</ele>
      </trkpt>
      <trkpt lat="46.25322" lon="6.79616">
        <ele>1557</ele>
        <time>2017-08-09T15:33:51+02:00</time>
      </trkpt>
      <trkpt lat="46.2531" lon="6.79644">
        <ele>1550</ele>
        <time>2017-08-09T15:34:30+02:00</time>
      </trkpt>
      <trkpt lat="46.25292" lon="6.79665">
        <ele>1542</ele>
        <time>2017-08-09T15:35:32+02:00</time>
      </trkpt>
      <trkpt lat="46.253" lon="6.79696">
        <ele>1547</ele>
        <time>2017-08-09T15:36:12+02:00</time>
      </trkpt>
      <trkpt lat="46.25272" lon="6.79713">
        <ele>1542</ele>
        <time>2017-08-09T15:36:35+02:00</time>
      </trkpt>
      <trkpt lat="46.25251" lon="6.79709">
        <ele>1536</ele>
      </trkpt>
      <trkpt lat="46.25234" lon="6.7972">
        <ele>1533</ele>
        <time>2017-08-09T15:43:28+02:00</time>
      </trkpt>
      <trkpt lat="46.25211" lon="6.79722">
        <ele>1528</ele>
        <time>2017-08-09T15:44:17+02:00</time>
      </trkpt>
      <trkpt lat="46.25189" lon="6.79723">
        <ele>1522</ele>
        <time>2017-08-09T15:44:43+02:00</time>
      </trkpt>
      <trkpt lat="46.25166" lon="6.79724">
        <ele>1517</ele>
        <time>2017-08-09T15:45:16+02:00</time>
      </trkpt>
      <trkpt lat="46.25143" lon="6.79729">
        <ele>1512</ele>
        <time>2017-08-09T15:45:47+02:00</time>
      </trkpt>
      <trkpt lat="46.25122" lon="6.7974">
        <ele>1507</ele>
        <time>2017-08-09T15:46:19+02:00</time>
      </trkpt>
      <trkpt lat="46.25099" lon="6.79745">
        <ele>1502</ele>
        <time>2017-08-09T15:46:46+02:00</time>
      </trkpt>
      <trkpt lat="46.25076" lon="6.79747">
        <ele>1497</ele>
        <time>2017-08-09T15:47:25+02:00</time>
      </trkpt>
      <trkpt lat="46.25053" lon="6.79755">
        <ele>1493</ele>
        <time>2017-08-09T15:47:55+02:00</time>
      </trkpt>
      <trkpt lat="46.25038" lon="6.7978">
        <ele>1489</ele>
        <time>2017-08-09T15:48:32+02:00</time>
      </trkpt>
      <trkpt lat="46.25023" lon="6.79805">
        <ele>1483</ele>
        <time>2017-08-09T15:48:50+02:00</time>
      </trkpt>
      <trkpt lat="46.25004" lon="6.79822">
        <ele>1476</ele>
        <time>2017-08-09T15:49:12+02:00</time>
      </trkpt>
      <trkpt lat="46.24992" lon="6.79851">
        <ele>1472</ele>
        <time>2017-08-09T15:49:40+02:00</time>
      </trkpt>
      <trkpt lat="46.24977" lon="6.79876">
        <ele>1469</ele>
        <time>2017-08-09T15:50:32+02:00</time>
      </trkpt>
      <trkpt lat="46.24954" lon="6.79879">
        <ele>1464</ele>
        <time>2017-08-09T15:51:06+02:00</time>
      </trkpt>
      <trkpt lat="46.24932" lon="6.79888">
        <ele>1460</ele>
        <time>2017-08-09T15:51:28+02:00</time>
      </trkpt>
      <trkpt lat="46.24908" lon="6.79893">
        <ele>1455</ele>
        <time>2017-08-09T15:52:01+02:00</time>
      </trkpt>
      <trkpt lat="46.24888" lon="6.79912">
        <ele>1448</ele>
        <time>2017-08-09T15:52:21+02:00</time>
      </trkpt>
      <trkpt lat="46.24871" lon="6.79916">
        <ele>1443</ele>
        <time>2017-08-09T15:54:40+02:00</time>
      </trkpt>
      <trkpt lat="46.2486" lon="6.79901">
        <ele>1441</ele>
      </trkpt>
      <trkpt lat="46.24852" lon="6.79887">
        <ele>1440</ele>
      </trkpt>
      <trkpt lat="46.24843" lon="6.799">
        <ele>1436</ele>
        <time>2017-08-09T15:55:33+02:00</time>
      </trkpt>
      <trkpt lat="46.2485" lon="6.79931">
        <ele>1422</ele>
        <time>2017-08-09T15:57:51+02:00</time>
      </trkpt>
      <trkpt lat="46.24864" lon="6.79957">
        <ele>1406</ele>
        <time>2017-08-09T15:58:29+02:00</time>
      </trkpt>
      <trkpt lat="46.24877" lon="6.79984">
        <ele>1391</ele>
        <time>2017-08-09T15:59:11+02:00</time>
      </trkpt>
      <trkpt lat="46.24891" lon="6.8001">
        <ele>1382</ele>
        <time>2017-08-09T15:59:51+02:00</time>
      </trkpt>
      <trkpt lat="46.2491" lon="6.80027">
        <ele>1383</ele>
        <time>2017-08-09T16:00:35+02:00</time>
      </trkpt>
      <trkpt lat="46.24926" lon="6.8005">
        <ele>1377</ele>
        <time>2017-08-09T16:02:41+02:00</time>
      </trkpt>
      <trkpt lat="46.24933" lon="6.80081">
        <ele>1359</ele>
        <time>2017-08-09T16:03:12+02:00</time>
      </trkpt>
      <trkpt lat="46.24943" lon="6.80112">
        <ele>1344</ele>
        <time>2017-08-09T16:03:39+02:00</time>
      </trkpt>
      <trkpt lat="46.2496" lon="6.80134">
        <ele>1339</ele>
        <time>2017-08-09T16:04:11+02:00</time>
      </trkpt>
      <trkpt lat="46.24979" lon="6.80152">
        <ele>1338</ele>
        <time>2017-08-09T16:04:37+02:00</time>
      </trkpt>
      <trkpt lat="46.24989" lon="6.80182">
        <ele>1326</ele>
        <time>2017-08-09T16:05:02+02:00</time>
      </trkpt>
      <trkpt lat="46.25005" lon="6.80205">
        <ele>1325</ele>
        <time>2017-08-09T16:05:37+02:00</time>
      </trkpt>
      <trkpt lat="46.25024" lon="6.80227">
        <ele>1328</ele>
        <time>2017-08-09T16:06:09+02:00</time>
      </trkpt>
      <trkpt lat="46.25032" lon="6.80264">
        <ele>1313</ele>
        <time>2017-08-09T16:10:11+02:00</time>
      </trkpt>
      <trkpt lat="46.25041" lon="6.80294">
        <ele>1307</ele>
        <time>2017-08-09T16:10:49+02:00</time>
      </trkpt>
      <trkpt lat="46.25051" lon="6.80323">
        <ele>1302</ele>
        <time>2017-08-09T16:11:22+02:00</time>
      </trkpt>
      <trkpt lat="46.25062" lon="6.80352">
        <ele>1297</ele>
        <time>2017-08-09T16:12:03+02:00</time>
      </trkpt>
      <trkpt lat="46.25072" lon="6.80382">
        <ele>1292</ele>
        <time>2017-08-09T16:12:32+02:00</time>
      </trkpt>
      <trkpt lat="46.25082" lon="6.80412">
        <ele>1285</ele>
        <time>2017-08-09T16:13:05+02:00</time>
      </trkpt>
      <trkpt lat="46.2509" lon="6.80443">
        <ele>1280</ele>
        <time>2017-08-09T16:13:29+02:00</time>
      </trkpt>
      <trkpt lat="46.25073" lon="6.80423">
        <ele>1278</ele>
        <time>2017-08-09T16:14:31+02:00</time>
      </trkpt>
      <trkpt lat="46.25057" lon="6.80404">
        <ele>1276</ele>
        <time>2017-08-09T16:14:54+02:00</time>
      </trkpt>
      <trkpt lat="46.25037" lon="6.80389">
        <ele>1271</ele>
        <time>2017-08-09T16:15:17+02:00</time>
      </trkpt>
      <trkpt lat="46.25018" lon="6.80378">
        <ele>1265</ele>
        <time>2017-08-09T16:15:44+02:00</time>
      </trkpt>
      <trkpt lat="46.25002" lon="6.80355">
        <ele>1263</ele>
        <time>2017-08-09T16:18:10+02:00</time>
      </trkpt>
      <trkpt lat="46.2501" lon="6.80388">
        <ele>1258</ele>
        <time>2017-08-09T16:20:36+02:00</time>
      </trkpt>
      <trkpt lat="46.25017" lon="6.80404">
        <ele>1256</ele>
        <time>2017-08-09T16:21:20+02:00</time>
      </trkpt>
      <trkpt lat="46.25026" lon="6.80426">
        <ele>1255</ele>
        <time>2017-08-09T16:21:43+02:00</time>
      </trkpt>
      <trkpt lat="46.2504" lon="6.80458">
        <ele>1251</ele>
        <time>2017-08-09T16:22:07+02:00</time>
      </trkpt>
      <trkpt lat="46.25048" lon="6.80487">
        <ele>1246</ele>
        <time>2017-08-09T16:22:36+02:00</time>
      </trkpt>
      <trkpt lat="46.2506" lon="6.80515">
        <ele>1244</ele>
        <time>2017-08-09T16:23:05+02:00</time>
      </trkpt>
      <trkpt lat="46.25072" lon="6.8055">
        <ele>1239</ele>
        <time>2017-08-09T16:23:29+02:00</time>
      </trkpt>
      <trkpt lat="46.25074" lon="6.80571">
        <ele>1234</ele>
        <time>2017-08-09T16:24:38+02:00</time>
      </trkpt>
      <trkpt lat="46.25066" lon="6.80591">
        <ele>1226</ele>
      </trkpt>
      <trkpt lat="46.2507" lon="6.80613">
        <ele>1223</ele>
        <time>2017-08-09T16:25:15+02:00</time>
      </trkpt>
      <trkpt lat="46.25077" lon="6.80627">
        <ele>1223</ele>
      </trkpt>
      <trkpt lat="46.2508" lon="6.80642">
        <ele>1221</ele>
        <time>2017-08-09T16:25:43+02:00</time>
      </trkpt>
      <trkpt lat="46.2508" lon="6.8066">
        <ele>1217</ele>
      </trkpt>
      <trkpt lat="46.25087" lon="6.80681">
        <ele>1217</ele>
        <time>2017-08-09T16:26:23+02:00</time>
      </trkpt>
      <trkpt lat="46.25088" lon="6.80712">
        <ele>1212</ele>
      </trkpt>
      <trkpt lat="46.25088" lon="6.80756">
        <ele>1205</ele>
        <time>2017-08-09T16:27:58+02:00</time>
      </trkpt>
      <trkpt lat="46.25069" lon="6.80784">
        <ele>1195</ele>
        <time>2017-08-09T16:28:34+02:00</time>
      </trkpt>
      <trkpt lat="46.25074" lon="6.80822">
        <ele>1192</ele>
      </trkpt>
      <trkpt lat="46.25069" lon="6.80867">
        <ele>1184</ele>
        <time>2017-08-09T16:29:02+02:00</time>
      </trkpt>
      <trkpt lat="46.2506" lon="6.80877">
        <ele>1180</ele>
        <time>2017-08-09T16:29:27+02:00</time>
      </trkpt>
      <trkpt lat="46.25046" lon="6.80908">
        <ele>1173</ele>
      </trkpt>
      <trkpt lat="46.25035" lon="6.80923">
        <ele>1169</ele>
      </trkpt>
      <trkpt lat="46.25032" lon="6.8095">
        <ele>1166</ele>
        <time>2017-08-09T16:29:49+02:00</time>
      </trkpt>
    </trkseg>
  </trk>
</gpx>